37 Rocks — ZM3003 — position and weather

sailwx.info

Track history (hours):
 
Tides and Currents Weather Stations Pressure Air Temp Water Temp Dewpoint Dewpoint Depression Visibility Wind Speed Wind Dir Waves Ship Positions

37 Rocks

Last reported at 2015-Aug-28 12:33 UTC. Time now 2015-Aug-31 00:40 UTC.
Position N 37°07' E 025°05'.

Length 17 m.

Type: Sailing vessel. MMSI: 512003230.

Date/timePositionNaut miles runAvg speedWind from/ knotsBaromVisibWave heightAir tempDewpointWater temp
2015-Aug-28 12:33N 37°07' E 025°05'1 1.0
2015-Aug-28 11:34N 37°06' E 025°06'4 0.1
2015-Aug-26 16:25N 37°09' E 025°09'6 7.5
2015-Aug-26 15:33N 37°15' E 025°14'7 7.5
2015-Aug-26 14:33N 37°21' E 025°19'4 3.7
2015-Aug-26 13:33N 37°24' E 025°21'0 0.1
2015-Aug-26 12:33N 37°25' E 025°21'0 0.0
2015-Aug-25 11:24N 37°25' E 025°21'0 0.0
2015-Aug-25 10:30N 37°25' E 025°21'0 0.0
2015-Aug-25 09:33N 37°25' E 025°21'0 0.0
2015-Aug-25 08:33N 37°25' E 025°21'0 0.0
2015-Aug-25 07:27N 37°25' E 025°21'0 0.0
2015-Aug-25 06:33N 37°25' E 025°21'0 0.0
2015-Aug-25 05:33N 37°25' E 025°21'0 0.0
2015-Aug-25 04:33N 37°25' E 025°21'0 0.0
2015-Aug-24 16:11N 37°25' E 025°21'0 0.0
2015-Aug-24 15:32N 37°25' E 025°21'0 0.0
2015-Aug-24 14:32N 37°25' E 025°21'0 0.1
2015-Aug-24 13:32N 37°24' E 025°21'0 0.0
2015-Aug-24 12:32N 37°24' E 025°21'0 0.0
2015-Aug-24 11:32N 37°24' E 025°21'0 0.0
2015-Aug-24 10:29N 37°24' E 025°21'0 0.0
2015-Aug-24 08:09N 37°24' E 025°21'0 0.1
2015-Aug-24 07:33N 37°24' E 025°21'1 1.0
2015-Aug-24 06:33N 37°24' E 025°20'7 7.5
2015-Aug-24 05:33N 37°27' E 025°12'7 7.4
2015-Aug-24 04:33N 37°28' E 025°02'5 0.4
2015-Aug-23 15:31N 37°27' E 024°57'0 0.5
2015-Aug-23 14:33N 37°26' E 024°57'7 6.6
2015-Aug-23 13:30N 37°32' E 024°52'  
2015-Aug-18 14:22N 37°24' E 024°51'3 3.3
2015-Aug-18 13:33N 37°22' E 024°52'4 4.2
2015-Aug-18 12:33N 37°18' E 024°55'  
Track history (hours):
 
Tides and Currents Weather Stations Pressure Air Temp Water Temp Dewpoint Dewpoint Depression Visibility Wind Speed Wind Dir Waves Ship Positions

37 Rocks

Last reported at 2015-Aug-28 12:33 UTC. Time now 2015-Aug-31 00:40 UTC.
Position N 37°07' E 025°05'.

Length 17 m.

Type: Sailing vessel. MMSI: 512003230.

Date/timePositionNaut miles runAvg speedWind from/ knotsBaromVisibWave heightAir tempDewpointWater temp
2015-Aug-28 12:33N 37°07' E 025°05'1 1.0
2015-Aug-28 11:34N 37°06' E 025°06'4 0.1
2015-Aug-26 16:25N 37°09' E 025°09'6 7.5
2015-Aug-26 15:33N 37°15' E 025°14'7 7.5
2015-Aug-26 14:33N 37°21' E 025°19'4 3.7
2015-Aug-26 13:33N 37°24' E 025°21'0 0.1
2015-Aug-26 12:33N 37°25' E 025°21'0 0.0
2015-Aug-25 11:24N 37°25' E 025°21'0 0.0
2015-Aug-25 10:30N 37°25' E 025°21'0 0.0
2015-Aug-25 09:33N 37°25' E 025°21'0 0.0
2015-Aug-25 08:33N 37°25' E 025°21'0 0.0
2015-Aug-25 07:27N 37°25' E 025°21'0 0.0
2015-Aug-25 06:33N 37°25' E 025°21'0 0.0
2015-Aug-25 05:33N 37°25' E 025°21'0 0.0
2015-Aug-25 04:33N 37°25' E 025°21'0 0.0
2015-Aug-24 16:11N 37°25' E 025°21'0 0.0
2015-Aug-24 15:32N 37°25' E 025°21'0 0.0
2015-Aug-24 14:32N 37°25' E 025°21'0 0.1
2015-Aug-24 13:32N 37°24' E 025°21'0 0.0
2015-Aug-24 12:32N 37°24' E 025°21'0 0.0
2015-Aug-24 11:32N 37°24' E 025°21'0 0.0
2015-Aug-24 10:29N 37°24' E 025°21'0 0.0
2015-Aug-24 08:09N 37°24' E 025°21'0 0.1
2015-Aug-24 07:33N 37°24' E 025°21'1 1.0
2015-Aug-24 06:33N 37°24' E 025°20'7 7.5
2015-Aug-24 05:33N 37°27' E 025°12'7 7.4
2015-Aug-24 04:33N 37°28' E 025°02'5 0.4
2015-Aug-23 15:31N 37°27' E 024°57'0 0.5
2015-Aug-23 14:33N 37°26' E 024°57'7 6.6
2015-Aug-23 13:30N 37°32' E 024°52'  
2015-Aug-18 14:22N 37°24' E 024°51'3 3.3
2015-Aug-18 13:33N 37°22' E 024°52'4 4.2
2015-Aug-18 12:33N 37°18' E 024°55'  

Dump ship's entire track history